Time;durP1;ratioP1;P1;durP2;ratioP2;P2;SDS_P1;SDS_P2;PMS_P1;PMS_P2;Temp;Humidity;BMP_temperature;BMP_pressure;BME280_temperature;BME280_humidity;BME280_pressure;Samples;Min_cycle;Max_cycle;Signal;HPM_P1;HPM_P2
2022/08/23 00:00:36;;;;;;;;;;;;;;;19.15;100.00;99704.84;3049811;19;1033;-49
2022/08/23 00:01:45;;;;;;;;;;;;;;;19.15;100.00;99700.28;3050195;19;1047;-49
2022/08/23 00:02:48;;;;;;;;;;;;;;;19.16;100.00;99701.13;3053207;19;1196;-50
2022/08/23 00:03:53;;;;;;;;;;;;;;;19.17;100.00;99705.53;3055080;19;1000;-49
2022/08/23 00:04:59;;;;;;;;;;;;;;;19.16;100.00;99703.81;3055020;19;1194;-49
2022/08/23 00:06:10;;;;;;;;;;;;;;;19.16;100.00;99706.53;3055078;19;1039;-49
2022/08/23 00:07:16;;;;;;;;;;;;;;;19.17;100.00;99713.63;3055215;19;1122;-49
2022/08/23 00:08:17;;;;;;;;;;;;;;;19.14;100.00;99713.97;3054755;19;967;-50
2022/08/23 00:09:22;;;;;;;;;;;;;;;19.15;100.00;99718.34;3053572;19;1238;-49
2022/08/23 00:10:24;;;;;;;;;;;;;;;19.16;100.00;99712.78;3054678;19;977;-49
2022/08/23 00:11:42;;;;;;;;;;;;;;;19.16;100.00;99711.94;3054962;19;1143;-50
2022/08/23 00:12:45;;;;;;;;;;;;;;;19.15;100.00;99710.25;3055109;19;1136;-51
2022/08/23 00:13:49;;;;;;;;;;;;;;;19.16;100.00;99711.94;3055185;19;1128;-49
2022/08/23 00:14:54;;;;;;;;;;;;;;;19.15;100.00;99712.94;3054722;19;1019;-48
2022/08/23 00:15:59;;;;;;;;;;;;;;;19.14;100.00;99711.25;3054786;19;1377;-49
2022/08/23 00:17:03;;;;;;;;;;;;;;;19.08;100.00;99701.94;3054625;19;1852;-49
2022/08/23 00:18:05;;;;;;;;;;;;;;;19.14;100.00;99708.56;3049671;19;982;-49
2022/08/23 00:19:11;;;;;;;;;;;;;;;19.14;100.00;99708.56;3047364;19;1453;-49
2022/08/23 00:20:14;;;;;;;;;;;;;;;19.15;100.00;99710.25;3047684;19;1116;-49
2022/08/23 00:21:19;;;;;;;;;;;;;;;19.13;100.00;99713.13;3048962;19;1003;-49
2022/08/23 00:22:21;;;;;;;;;;;;;;;19.14;100.00;99704.00;3049066;19;1156;-49
2022/08/23 00:23:25;;;;;;;;;;;;;;;19.07;100.00;99694.88;3049710;19;1247;-49
2022/08/23 00:24:33;;;;;;;;;;;;;;;19.12;100.00;99705.16;3050156;19;897;-50
2022/08/23 00:25:41;;;;;;;;;;;;;;;19.13;100.00;99706.84;3054144;19;1143;-49
2022/08/23 00:27:03;;;;;;;;;;;;;;;19.10;100.00;99707.19;3055265;19;989;-50
2022/08/23 00:28:07;;;;;;;;;;;;;;;19.08;100.00;99709.25;3054993;19;1279;-49
2022/08/23 00:29:18;;;;;;;;;;;;;;;19.08;100.00;99693.81;3054271;19;952;-50
2022/08/23 00:30:20;;;;;;;;;;;;;;;19.10;100.00;99688.25;3054240;19;1166;-49
2022/08/23 00:31:25;;;;;;;;;;;;;;;19.10;100.00;99688.25;3053539;19;1057;-49
2022/08/23 00:32:28;;;;;;;;;;;;;;;19.08;100.00;99690.31;3053939;19;909;-49
2022/08/23 00:33:33;;;;;;;;;;;;;;;19.08;100.00;99689.28;3054789;19;969;-49
2022/08/23 00:34:35;;;;;;;;;;;;;;;19.08;100.00;99687.59;3055017;19;865;-49
2022/08/23 00:35:39;;;;;;;;;;;;;;;19.08;100.00;99688.41;3054879;19;1587;-50
2022/08/23 00:36:41;;;;;;;;;;;;;;;19.10;100.00;99688.25;3054214;19;1080;-49
2022/08/23 00:37:46;;;;;;;;;;;;;;;19.06;100.00;99685.91;3053719;19;1842;-49
2022/08/23 00:39:07;;;;;;;;;;;;;;;19.07;100.00;99694.88;3054901;19;1246;-49
2022/08/23 00:40:13;;;;;;;;;;;;;;;19.08;100.00;99694.69;3050991;19;1309;-49
2022/08/23 00:41:15;;;;;;;;;;;;;;;19.06;100.00;99696.72;3047639;19;1178;-49
2022/08/23 00:47:52;;;;;;;;;;;;;;;19.00;100.00;99701.94;3053064;19;1013;-49
2022/08/23 00:48:54;;;;;;;;;;;;;;;19.02;100.00;99694.53;3053548;19;915;-49
2022/08/23 00:50:09;;;;;;;;;;;;;;;19.08;100.00;99710.06;3053752;19;980;-49
2022/08/23 00:51:35;;;;;;;;;;;;;;;19.10;100.00;99702.63;3053961;19;1215;-49
2022/08/23 00:52:59;;;;;;;;;;;;;;;19.12;100.00;99710.56;3053521;19;1098;-49
2022/08/23 00:54:01;;;;;;;;;;;;;;;19.15;100.00;99715.66;3053981;19;1085;-50
2022/08/23 00:55:06;;;;;;;;;;;;;;;19.16;100.00;99718.19;3053331;19;981;-49
2022/08/23 00:56:11;;;;;;;;;;;;;;;19.18;100.00;99715.31;3054688;19;1037;-48
2022/08/23 00:57:18;;;;;;;;;;;;;;;19.19;100.00;99717.03;3053229;19;1846;-48
2022/08/23 00:58:22;;;;;;;;;;;;;;;19.21;100.00;99725.78;3053799;19;1245;-49
2022/08/23 00:59:24;;;;;;;;;;;;;;;19.23;100.00;99718.34;3054311;19;1209;-48
2022/08/23 01:00:29;;;;;;;;;;;;;;;19.26;100.00;99723.44;3054709;19;996;-49
2022/08/23 01:01:31;;;;;;;;;;;;;;;19.27;100.00;99725.13;3053621;19;1155;-49
2022/08/23 01:02:35;;;;;;;;;;;;;;;19.29;100.00;99733.94;3050344;19;1218;-49
2022/08/23 01:03:38;;;;;;;;;;;;;;;19.30;100.00;99730.22;3046470;19;983;-50
2022/08/23 01:04:51;;;;;;;;;;;;;;;19.33;100.00;99732.56;3046184;19;975;-49
2022/08/23 01:05:58;;;;;;;;;;;;;;;19.37;100.00;99728.50;3047582;19;1115;-50
2022/08/23 01:07:06;;;;;;;;;;;;;;;19.41;100.00;99728.00;3048291;19;1105;-49
2022/08/23 01:08:11;;;;;;;;;;;;;;;19.46;100.00;99730.19;3051668;19;1011;-49
2022/08/23 01:09:15;;;;;;;;;;;;;;;19.50;100.00;99728.88;3051835;19;1590;-49
2022/08/23 01:10:23;;;;;;;;;;;;;;;19.56;100.00;99735.47;3055777;19;964;-49
2022/08/23 01:11:31;;;;;;;;;;;;;;;19.58;100.00;99726.16;3056074;19;973;-49
2022/08/23 01:12:37;;;;;;;;;;;;;;;19.62;100.00;99735.63;3056602;19;1020;-49
2022/08/23 01:13:41;;;;;;;;;;;;;;;19.66;100.00;99742.41;3056160;19;1120;-49
2022/08/23 01:14:48;;;;;;;;;;;;;;;19.68;100.00;99745.75;3056565;19;1020;-49
2022/08/23 01:15:56;;;;;;;;;;;;;;;19.70;100.00;99743.72;3056326;19;1430;-49
2022/08/23 01:17:04;;;;;;;;;;;;;;;19.73;100.00;99737.97;3056292;19;1098;-50
2022/08/23 01:18:10;;;;;;;;;;;;;;;19.74;100.00;99745.09;3055282;19;1849;-48
2022/08/23 01:19:13;;;;;;;;;;;;;;;19.80;100.00;99756.28;3055981;19;945;-49
2022/08/23 01:20:20;;;;;;;;;;;;;;;19.80;100.00;99759.81;3056144;19;1166;-49
2022/08/23 01:21:26;;;;;;;;;;;;;;;19.83;100.00;99764.03;3056270;19;970;-50
2022/08/23 01:22:52;;;;;;;;;;;;;;;19.87;100.00;99773.50;3056374;19;1071;-50
2022/08/23 01:23:55;;;;;;;;;;;;;;;19.89;100.00;99780.44;3056264;19;1037;-49
2022/08/23 01:24:59;;;;;;;;;;;;;;;19.92;100.00;99790.09;3054117;19;1044;-50
2022/08/23 01:26:18;;;;;;;;;;;;;;;19.94;100.00;99797.00;3049789;19;1174;-49
2022/08/23 01:27:23;;;;;;;;;;;;;;;19.96;100.00;99802.25;3049032;19;977;-49
2022/08/23 01:28:28;;;;;;;;;;;;;;;19.99;100.00;99796.50;3050090;19;1213;-49
2022/08/23 01:29:29;;;;;;;;;;;;;;;20.02;100.00;99796.19;3050804;19;1282;-50
2022/08/23 01:30:35;;;;;;;;;;;;;;;20.07;100.00;99793.78;3051355;19;1779;-49
2022/08/23 01:31:37;;;;;;;;;;;;;;;20.12;100.00;99791.41;3050792;19;1091;-49
2022/08/23 01:32:52;;;;;;;;;;;;;;;20.16;100.00;99798.19;3055625;19;903;-50
2022/08/23 01:33:58;;;;;;;;;;;;;;;20.23;100.00;99799.16;3056536;19;1309;-50
2022/08/23 01:35:03;;;;;;;;;;;;;;;20.29;100.00;99805.75;3056375;19;961;-49
2022/08/23 01:36:05;;;;;;;;;;;;;;;20.25;100.00;99790.88;3056316;19;1244;-50
2022/08/23 01:37:13;;;;;;;;;;;;;;;20.37;100.00;99811.19;3055998;19;1697;-49
2022/08/23 01:38:18;;;;;;;;;;;;;;;20.41;100.00;99818.78;3054945;19;1838;-49
2022/08/23 01:39:21;;;;;;;;;;;;;;;20.44;100.00;99817.59;3056618;19;1120;-49
2022/08/23 01:40:26;;;;;;;;;;;;;;;20.46;100.00;99821.84;3056306;19;921;-49
2022/08/23 01:41:28;;;;;;;;;;;;;;;20.49;100.00;99826.06;3056298;19;1192;-49
2022/08/23 01:42:33;;;;;;;;;;;;;;;20.50;100.00;99822.34;3055280;19;1016;-50
2022/08/23 01:43:37;;;;;;;;;;;;;;;20.53;100.00;99823.88;3056118;19;982;-50
2022/08/23 01:44:39;;;;;;;;;;;;;;;20.49;100.00;99826.91;3056167;19;1033;-49
2022/08/23 01:45:44;;;;;;;;;;;;;;;20.51;100.00;99836.75;3056308;19;916;-49
2022/08/23 01:46:46;;;;;;;;;;;;;;;20.49;100.00;99826.91;3056085;19;988;-49
2022/08/23 01:47:56;;;;;;;;;;;;;;;20.53;100.00;99832.00;3050358;19;1024;-49
2022/08/23 01:48:59;;;;;;;;;;;;;;;20.54;100.00;99836.38;3049406;19;1250;-49
2022/08/23 01:50:07;;;;;;;;;;;;;;;20.55;100.00;99846.19;3049174;19;1369;-50
2022/08/23 01:51:09;;;;;;;;;;;;;;;20.54;100.00;99834.50;3050590;19;1159;-49
2022/08/23 01:52:14;;;;;;;;;;;;;;;20.54;100.00;99834.50;3051316;19;1282;-49
2022/08/23 01:53:16;;;;;;;;;;;;;;;20.54;100.00;99839.06;3050762;19;1158;-49
2022/08/23 01:54:25;;;;;;;;;;;;;;;20.53;100.00;99832.00;3051090;19;1098;-50
2022/08/23 01:55:28;;;;;;;;;;;;;;;20.53;100.00;99842.84;3055757;19;1038;-51
2022/08/23 01:56:33;;;;;;;;;;;;;;;20.53;100.00;99837.41;3056436;19;1634;-50
2022/08/23 01:57:44;;;;;;;;;;;;;;;20.49;100.00;99848.59;3056408;19;1047;-50
2022/08/23 01:58:53;;;;;;;;;;;;;;;20.45;100.00;99841.81;3055363;19;1865;-49
2022/08/23 01:59:56;;;;;;;;;;;;;;;20.41;100.00;99835.03;3055930;19;1183;-49
2022/08/23 02:01:00;;;;;;;;;;;;;;;20.42;100.00;99836.75;3055623;19;936;-50
2022/08/23 02:02:02;;;;;;;;;;;;;;;20.38;100.00;99835.41;3055791;19;1814;-49
2022/08/23 02:03:08;;;;;;;;;;;;;;;20.38;100.00;99840.00;3056216;19;1565;-49
2022/08/23 02:04:09;;;;;;;;;;;;;;;20.39;100.00;99830.84;3056400;19;1280;-50
2022/08/23 02:05:14;;;;;;;;;;;;;;;20.39;100.00;99831.69;3056181;19;1016;-49
2022/08/23 02:06:20;;;;;;;;;;;;;;;20.40;100.00;99833.38;3055845;19;1097;-50
2022/08/23 02:07:29;;;;;;;;;;;;;;;20.35;100.00;99835.75;3055424;19;861;-51
2022/08/23 02:09:57;;;;;;;;;;;;;;;20.37;100.00;99844.56;3052449;19;1194;-49
2022/08/23 02:10:59;;;;;;;;;;;;;;;20.39;100.00;99853.38;3049237;19;1582;-50
2022/08/23 02:12:04;;;;;;;;;;;;;;;20.39;100.00;99837.09;3048423;19;903;-51
2022/08/23 02:13:06;;;;;;;;;;;;;;;20.40;100.00;99838.81;3050289;19;1477;-49
2022/08/23 02:14:14;;;;;;;;;;;;;;;20.39;100.00;99826.28;3051801;19;1063;-50
2022/08/23 02:15:26;;;;;;;;;;;;;;;20.43;100.00;99833.00;3050944;19;1154;-50
2022/08/23 02:16:32;;;;;;;;;;;;;;;20.43;100.00;99833.00;3051467;19;897;-49
2022/08/23 02:17:34;;;;;;;;;;;;;;;20.36;100.00;99823.91;3054737;19;1110;-50
2022/08/23 02:18:39;;;;;;;;;;;;;;;20.35;100.00;99832.16;3056155;19;2213;-50
2022/08/23 02:19:42;;;;;;;;;;;;;;;20.32;100.00;99830.63;3053809;19;1055;-49
2022/08/23 02:20:47;;;;;;;;;;;;;;;20.33;100.00;99821.50;3056014;19;964;-49
2022/08/23 02:21:49;;;;;;;;;;;;;;;20.31;100.00;99809.13;3055878;19;1146;-49
2022/08/23 02:22:54;;;;;;;;;;;;;;;20.32;100.00;99802.69;3055943;19;1106;-49
2022/08/23 02:23:57;;;;;;;;;;;;;;;20.31;100.00;99801.00;3056333;19;1082;-50
2022/08/23 02:25:01;;;;;;;;;;;;;;;20.30;100.00;99794.72;3056501;19;1225;-50
2022/08/23 02:26:04;;;;;;;;;;;;;;;20.31;100.00;99804.56;3055916;19;1146;-50
2022/08/23 02:27:09;;;;;;;;;;;;;;;20.31;100.00;99795.59;3055557;19;1028;-50
2022/08/23 02:28:13;;;;;;;;;;;;;;;20.33;100.00;99799.81;3055870;19;1165;-50
2022/08/23 02:29:19;;;;;;;;;;;;;;;20.32;100.00;99803.53;3055558;19;1222;-49
2022/08/23 02:30:23;;;;;;;;;;;;;;;20.33;100.00;99791.69;3055784;19;1060;-50
2022/08/23 02:31:28;;;;;;;;;;;;;;;20.32;100.00;99787.28;3055895;19;1117;-49
2022/08/23 02:32:31;;;;;;;;;;;;;;;20.33;100.00;99778.13;3051116;19;1232;-48
2022/08/23 02:33:36;;;;;;;;;;;;;;;20.36;100.00;99771.56;3048363;19;1383;-49
2022/08/23 02:34:38;;;;;;;;;;;;;;;20.36;100.00;99767.00;3048543;19;1259;-49
2022/08/23 02:35:43;;;;;;;;;;;;;;;20.38;100.00;99764.97;3049299;19;1129;-50
2022/08/23 02:36:45;;;;;;;;;;;;;;;20.36;100.00;99742.59;3049462;19;1023;-50
2022/08/23 02:37:51;;;;;;;;;;;;;;;20.36;100.00;99750.72;3050758;19;1220;-50
2022/08/23 02:38:54;;;;;;;;;;;;;;;20.31;100.00;99739.53;3049977;19;1857;-49
2022/08/23 02:39:59;;;;;;;;;;;;;;;20.30;100.00;99740.53;3054360;19;1140;-50
2022/08/23 02:41:01;;;;;;;;;;;;;;;20.31;100.00;99742.22;3055998;19;980;-49
2022/08/23 02:42:07;;;;;;;;;;;;;;;20.33;100.00;99745.63;3054753;19;1341;-49
2022/08/23 02:43:14;;;;;;;;;;;;;;;20.34;100.00;99731.06;3055457;19;1213;-49
2022/08/23 02:44:19;;;;;;;;;;;;;;;20.31;100.00;99720.56;3055275;19;1183;-50
2022/08/23 02:45:20;;;;;;;;;;;;;;;20.34;100.00;99722.06;3055168;19;1032;-50
2022/08/23 02:46:25;;;;;;;;;;;;;;;20.35;100.00;99716.53;3055675;19;1142;-50
2022/08/23 02:47:27;;;;;;;;;;;;;;;20.38;100.00;99718.88;3054886;19;969;-51
2022/08/23 02:48:43;;;;;;;;;;;;;;;20.40;100.00;99714.13;3055129;19;985;-50
2022/08/23 02:49:46;;;;;;;;;;;;;;;20.42;100.00;99720.19;3055636;19;1182;-49
2022/08/23 02:50:51;;;;;;;;;;;;;;;20.43;100.00;99705.63;3055017;19;977;-51
2022/08/23 02:51:53;;;;;;;;;;;;;;;20.43;100.00;99707.50;3055188;19;1063;-50
2022/08/23 02:52:58;;;;;;;;;;;;;;;20.45;100.00;99700.88;3055343;19;1350;-50
2022/08/23 02:54:01;;;;;;;;;;;;;;;20.47;100.00;99704.25;3055373;19;963;-50
2022/08/23 02:55:06;;;;;;;;;;;;;;;20.45;100.00;99709.00;3050322;19;1035;-50
2022/08/23 02:56:09;;;;;;;;;;;;;;;20.43;100.00;99712.91;3047381;19;891;-50
2022/08/23 02:57:24;;;;;;;;;;;;;;;20.39;100.00;99712.44;3048169;19;1335;-51
2022/08/23 02:58:31;;;;;;;;;;;;;;;20.38;100.00;99721.59;3049932;19;1008;-50
2022/08/23 02:59:34;;;;;;;;;;;;;;;20.33;100.00;99723.09;3050090;19;1871;-51
2022/08/23 03:00:38;;;;;;;;;;;;;;;20.34;100.00;99709.38;3050209;19;993;-49
2022/08/23 03:01:40;;;;;;;;;;;;;;;20.35;100.00;99712.94;3049249;19;1233;-50
2022/08/23 03:03:03;;;;;;;;;;;;;;;20.35;100.00;99711.09;3055458;19;1419;-51
2022/08/23 03:04:06;;;;;;;;;;;;;;;20.31;100.00;99712.44;3054458;19;1465;-50
2022/08/23 03:05:11;;;;;;;;;;;;;;;20.30;100.00;99710.72;3055161;19;1235;-50
2022/08/23 03:06:13;;;;;;;;;;;;;;;20.30;100.00;99708.03;3054982;19;1119;-50
2022/08/23 03:07:29;;;;;;;;;;;;;;;20.30;100.00;99708.03;3055322;19;965;-50
2022/08/23 03:08:32;;;;;;;;;;;;;;;20.29;100.00;99705.47;3055639;19;1063;-49
2022/08/23 03:09:36;;;;;;;;;;;;;;;20.32;100.00;99708.69;3054509;19;1646;-49
2022/08/23 03:10:41;;;;;;;;;;;;;;;20.34;100.00;99709.38;3055187;19;1307;-50
2022/08/23 03:11:48;;;;;;;;;;;;;;;20.37;100.00;99713.63;3055920;19;1222;-49
2022/08/23 03:12:51;;;;;;;;;;;;;;;20.37;100.00;99714.47;3054664;19;1157;-49
2022/08/23 03:13:56;;;;;;;;;;;;;;;20.39;100.00;99717.88;3055400;19;873;-49
2022/08/23 03:14:58;;;;;;;;;;;;;;;20.42;100.00;99716.66;3055185;19;950;-49
2022/08/23 03:16:02;;;;;;;;;;;;;;;20.42;100.00;99706.66;3054368;19;1084;-50
2022/08/23 03:17:05;;;;;;;;;;;;;;;20.43;100.00;99707.50;3052579;19;1071;-51
2022/08/23 03:18:11;;;;;;;;;;;;;;;20.45;100.00;99711.72;3047546;19;1044;-50
2022/08/23 03:19:13;;;;;;;;;;;;;;;20.47;100.00;99701.56;3047461;19;1862;-50
2022/08/23 03:20:18;;;;;;;;;;;;;;;20.48;100.00;99705.97;3047606;19;1850;-49
2022/08/23 03:21:21;;;;;;;;;;;;;;;20.49;100.00;99702.22;3051067;19;921;-49
2022/08/23 03:22:25;;;;;;;;;;;;;;;20.52;100.00;99705.59;3051062;19;1105;-50
2022/08/23 03:23:28;;;;;;;;;;;;;;;20.53;100.00;99701.88;3050074;19;1377;-50
2022/08/23 03:24:32;;;;;;;;;;;;;;;20.54;100.00;99698.13;3050914;19;1035;-49
2022/08/23 03:25:34;;;;;;;;;;;;;;;20.54;100.00;99707.09;3056396;19;1099;-51
2022/08/23 03:26:47;;;;;;;;;;;;;;;20.53;100.00;99701.88;3054690;19;1552;-50
2022/08/23 03:27:50;;;;;;;;;;;;;;;20.52;100.00;99711.03;3055316;19;967;-49
2022/08/23 03:28:54;;;;;;;;;;;;;;;20.51;100.00;99709.34;3055342;19;1055;-49
2022/08/23 03:30:00;;;;;;;;;;;;;;;20.49;100.00;99710.34;3055433;19;959;-50
2022/08/23 03:31:07;;;;;;;;;;;;;;;20.48;100.00;99715.94;3052875;19;1706;-50
2022/08/23 03:32:18;;;;;;;;;;;;;;;20.48;100.00;99714.09;3054989;19;1080;-49
2022/08/23 03:33:23;;;;;;;;;;;;;;;20.47;100.00;99715.09;3054965;19;1093;-49
2022/08/23 03:34:25;;;;;;;;;;;;;;;20.48;100.00;99711.38;3054628;19;1333;-49
2022/08/23 03:35:30;;;;;;;;;;;;;;;20.49;100.00;99720.34;3054736;19;1176;-49
2022/08/23 03:36:35;;;;;;;;;;;;;;;20.51;100.00;99720.19;3055109;19;1254;-50
2022/08/23 03:37:37;;;;;;;;;;;;;;;20.53;100.00;99724.38;3054393;19;1375;-50
2022/08/23 03:38:44;;;;;;;;;;;;;;;20.56;100.00;99728.59;3054322;19;1238;-51
2022/08/23 03:39:46;;;;;;;;;;;;;;;20.52;100.00;99722.72;3050323;19;1868;-49
2022/08/23 03:40:52;;;;;;;;;;;;;;;20.62;100.00;99738.75;3048083;19;1122;-49
2022/08/23 03:41:55;;;;;;;;;;;;;;;20.64;100.00;99742.16;3046919;19;1314;-50
2022/08/23 03:43:01;;;;;;;;;;;;;;;20.67;100.00;99741.75;3048384;19;1012;-50
2022/08/23 03:44:04;;;;;;;;;;;;;;;20.71;100.00;99737.69;3049980;19;1354;-49
2022/08/23 03:45:12;;;;;;;;;;;;;;;20.75;100.00;99739.03;3049632;19;1009;-49
2022/08/23 03:46:21;;;;;;;;;;;;;;;20.79;100.00;99734.91;3049518;19;1019;-52
2022/08/23 03:47:29;;;;;;;;;;;;;;;20.85;100.00;99728.78;3053563;19;1054;-49
2022/08/23 03:48:32;;;;;;;;;;;;;;;20.88;100.00;99733.88;3054768;19;1024;-50
2022/08/23 03:49:36;;;;;;;;;;;;;;;20.93;100.00;99734.16;3054058;19;1691;-50
2022/08/23 03:50:38;;;;;;;;;;;;;;;20.96;100.00;99736.53;3053837;19;1297;-49
2022/08/23 03:51:43;;;;;;;;;;;;;;;21.02;100.00;99741.22;3054510;19;1707;-49
2022/08/23 03:52:45;;;;;;;;;;;;;;;21.05;100.00;99740.88;3054686;19;1240;-50
2022/08/23 03:53:50;;;;;;;;;;;;;;;21.07;100.00;99733.41;3054864;19;1094;-50
2022/08/23 03:54:52;;;;;;;;;;;;;;;21.09;100.00;99747.63;3054545;19;893;-49
2022/08/23 03:55:57;;;;;;;;;;;;;;;21.10;100.00;99753.91;3054122;19;1094;-50
2022/08/23 03:57:01;;;;;;;;;;;;;;;21.11;100.00;99759.16;3054884;19;1046;-49
2022/08/23 03:58:09;;;;;;;;;;;;;;;21.13;100.00;99769.81;3054015;19;1034;-49
2022/08/23 03:59:11;;;;;;;;;;;;;;;21.16;100.00;99773.00;3054711;19;1322;-50
2022/08/23 04:00:16;;;;;;;;;;;;;;;21.18;100.00;99765.56;3053891;19;1843;-49
2022/08/23 04:01:23;;;;;;;;;;;;;;;21.22;100.00;99768.78;3054599;19;1055;-50
2022/08/23 04:02:32;;;;;;;;;;;;;;;21.26;100.00;99769.25;3048592;19;1089;-50
2022/08/23 04:03:35;;;;;;;;;;;;;;;21.29;100.00;99775.16;3047618;19;1245;-50
2022/08/23 04:04:41;;;;;;;;;;;;;;;21.28;100.00;99778.03;3046950;19;974;-50
2022/08/23 04:06:13;;;;;;;;;;;;;;;21.32;100.00;99779.38;3049029;19;1094;-49
2022/08/23 04:07:19;;;;;;;;;;;;;;;21.40;100.00;99787.47;3049523;19;1180;-49
2022/08/23 04:08:26;;;;;;;;;;;;;;;21.65;100.00;99794.38;3049495;19;984;-50
2022/08/23 04:09:38;;;;;;;;;;;;;;;21.95;100.00;99813.50;3052240;19;1004;-50
2022/08/23 04:10:41;;;;;;;;;;;;;;;22.12;100.00;99831.34;3054049;19;990;-50
2022/08/23 04:11:46;;;;;;;;;;;;;;;22.24;100.00;99849.75;3054227;19;1224;-50
2022/08/23 04:12:48;;;;;;;;;;;;;;;22.42;100.00;99860.28;3053596;19;1002;-50
2022/08/23 04:13:54;;;;;;;;;;;;;;;22.54;100.00;99880.53;3052995;19;1772;-51
2022/08/23 04:14:56;;;;;;;;;;;;;;;22.68;100.00;99902.50;3053658;19;1443;-50
2022/08/23 04:16:02;;;;;;;;;;;;;;;22.72;100.00;99917.41;3054193;19;970;-50
2022/08/23 04:17:04;;;;;;;;;;;;;;;22.71;100.00;99935.59;3054367;19;1031;-49
2022/08/23 04:18:09;;;;;;;;;;;;;;;22.60;100.00;99939.63;3053721;19;1213;-49
2022/08/23 04:19:12;;;;;;;;;;;;;;;22.43;100.00;99943.53;3052622;19;1760;-50
2022/08/23 04:20:27;;;;;;;;;;;;;;;22.21;100.00;99938.97;3052275;19;1859;-49
2022/08/23 04:21:35;;;;;;;;;;;;;;;22.02;100.00;99942.19;3053469;19;1244;-50
2022/08/23 04:22:40;;;;;;;;;;;;;;;21.86;100.00;99938.50;3053511;19;1087;-50
2022/08/23 04:23:42;;;;;;;;;;;;;;;21.66;100.00;99920.16;3053948;19;1176;-50
2022/08/23 04:24:49;;;;;;;;;;;;;;;21.62;100.00;99926.97;3048774;19;1115;-50
2022/08/23 04:25:51;;;;;;;;;;;;;;;21.53;100.00;99920.75;3046576;19;1295;-49
2022/08/23 04:26:55;;;;;;;;;;;;;;;21.47;100.00;99925.03;3046468;19;991;-49
2022/08/23 04:27:57;;;;;;;;;;;;;;;21.44;100.00;99925.38;3047337;19;1564;-49
2022/08/23 04:29:04;;;;;;;;;;;;;;;21.44;100.00;99909.09;3048969;19;1418;-49
2022/08/23 04:30:08;;;;;;;;;;;;;;;21.47;100.00;99902.47;3048525;19;1297;-50
2022/08/23 04:31:17;;;;;;;;;;;;;;;21.50;100.00;99902.94;3049064;19;1341;-50
2022/08/23 04:32:21;;;;;;;;;;;;;;;21.58;100.00;99909.34;3052119;19;949;-50
2022/08/23 04:33:34;;;;;;;;;;;;;;;21.65;100.00;99910.31;3052951;19;1175;-50
2022/08/23 04:34:41;;;;;;;;;;;;;;;21.78;100.00;99911.41;3053672;19;1069;-50
2022/08/23 04:35:54;;;;;;;;;;;;;;;21.98;100.00;99910.94;3053433;19;1026;-49
2022/08/23 04:36:56;;;;;;;;;;;;;;;22.18;100.00;99923.03;3054081;19;1209;-49
2022/08/23 04:38:01;;;;;;;;;;;;;;;22.36;100.00;99931.69;3053810;19;1683;-50
2022/08/23 04:39:21;;;;;;;;;;;;;;;22.52;100.00;99947.88;3054046;19;1079;-49
2022/08/23 04:43:00;;;;;;;;;;;;;;;22.73;100.00;99977.06;3056093;19;870;-49
2022/08/23 04:44:04;;;;;;;;;;;;;;;22.61;100.00;99973.94;3057408;19;1107;-49
2022/08/23 04:45:08;;;;;;;;;;;;;;;22.49;100.00;99975.41;3056877;19;1931;-51
2022/08/23 04:46:16;;;;;;;;;;;;;;;22.40;100.00;99976.53;3056651;19;1078;-49
2022/08/23 04:47:19;;;;;;;;;;;;;;;22.33;100.00;99980.19;3052799;19;1076;-49
2022/08/23 04:48:25;;;;;;;;;;;;;;;22.26;100.00;99983.59;3049465;19;1222;-49
2022/08/23 04:49:27;;;;;;;;;;;;;;;22.25;100.00;99989.22;3049254;19;1377;-49
2022/08/23 04:50:33;;;;;;;;;;;;;;;22.24;100.00;99984.81;3049961;19;1513;-50
2022/08/23 04:51:50;;;;;;;;;;;;;;;22.25;100.00;99981.06;3051603;19;1482;-51
2022/08/23 04:52:55;;;;;;;;;;;;;;;22.26;100.00;99982.75;3051815;19;1325;-50
2022/08/23 04:54:00;;;;;;;;;;;;;;;22.26;100.00;99985.47;3051371;19;948;-49
2022/08/23 04:55:21;;;;;;;;;;;;;;;22.20;100.00;99994.38;3057093;19;975;-50
2022/08/23 04:56:25;;;;;;;;;;;;;;;22.19;100.00;99998.97;3056408;19;1173;-48
2022/08/23 04:57:30;;;;;;;;;;;;;;;22.25;100.00;100005.53;3056545;19;1065;-50
2022/08/23 04:58:32;;;;;;;;;;;;;;;22.29;100.00;100006.88;3054976;19;1586;-51
2022/08/23 04:59:39;;;;;;;;;;;;;;;22.33;100.00;100005.50;3056594;19;1613;-51
2022/08/23 05:00:40;;;;;;;;;;;;;;;22.39;100.00;100007.47;3056684;19;1838;-49
2022/08/23 05:01:46;;;;;;;;;;;;;;;22.48;100.00;100011.78;3056017;19;1075;-49
2022/08/23 05:02:48;;;;;;;;;;;;;;;22.60;100.00;100004.91;3057154;19;1030;-49
2022/08/23 05:03:53;;;;;;;;;;;;;;;22.73;100.00;100003.41;3057299;19;972;-49
2022/08/23 05:04:56;;;;;;;;;;;;;;;22.81;100.00;100006.13;3056801;19;2730;-49
2022/08/23 05:06:03;;;;;;;;;;;;;;;22.84;100.00;100027.50;3055661;19;1166;-50
2022/08/23 05:07:11;;;;;;;;;;;;;;;22.85;100.00;100018.31;3056301;19;1187;-51
2022/08/23 05:08:17;;;;;;;;;;;;;;;22.87;100.00;100027.13;3057196;19;1162;-49
2022/08/23 05:09:23;;;;;;;;;;;;;;;22.88;100.00;100029.66;3055452;19;1592;-49
2022/08/23 05:10:26;;;;;;;;;;;;;;;22.93;100.00;100020.97;3048216;19;1554;-49
2022/08/23 05:11:30;;;;;;;;;;;;;;;22.97;100.00;100027.72;3048995;19;1134;-49
2022/08/23 05:12:33;;;;;;;;;;;;;;;23.01;100.00;100039.91;3048956;19;1128;-49
2022/08/23 05:13:37;;;;;;;;;;;;;;;23.06;100.00;100042.09;3051854;19;1035;-49
2022/08/23 05:14:44;;;;;;;;;;;;;;;23.13;100.00;100046.59;3052145;19;1183;-50
2022/08/23 05:15:49;;;;;;;;;;;;;;;23.18;100.00;100051.50;3051353;19;1060;-50
2022/08/23 05:16:54;;;;;;;;;;;;;;;23.20;100.00;100061.16;3052153;19;1725;-50
2022/08/23 05:17:57;;;;;;;;;;;;;;;23.23;100.00;100060.78;3056025;19;1635;-49
2022/08/23 05:19:01;;;;;;;;;;;;;;;23.17;100.00;100072.44;3056697;19;971;-49
2022/08/23 05:20:07;;;;;;;;;;;;;;;23.19;100.00;100070.34;3056888;19;1130;-49
2022/08/23 05:21:15;;;;;;;;;;;;;;;23.25;100.00;100064.16;3053478;19;1868;-50
2022/08/23 05:22:18;;;;;;;;;;;;;;;23.26;100.00;100074.03;3055813;19;1358;-50
2022/08/23 05:23:41;;;;;;;;;;;;;;;23.29;100.00;100079.09;3056057;19;1526;-50
2022/08/23 05:24:56;;;;;;;;;;;;;;;23.34;100.00;100084.81;3056229;19;1005;-49
2022/08/23 05:25:58;;;;;;;;;;;;;;;23.42;100.00;100080.34;3056443;19;1008;-49
2022/08/23 05:27:08;;;;;;;;;;;;;;;23.45;100.00;100080.78;3056064;19;1261;-50
2022/08/23 05:28:14;;;;;;;;;;;;;;;23.48;100.00;100090.47;3056461;19;1159;-49
2022/08/23 05:29:20;;;;;;;;;;;;;;;23.52;100.00;100091.81;3055832;19;1030;-49
2022/08/23 05:30:24;;;;;;;;;;;;;;;23.52;100.00;100094.56;3054721;19;980;-50
2022/08/23 05:31:30;;;;;;;;;;;;;;;23.52;100.00;100097.28;3053606;19;1743;-50
2022/08/23 05:32:35;;;;;;;;;;;;;;;23.53;100.00;100104.41;3048257;19;1184;-49
2022/08/23 05:33:43;;;;;;;;;;;;;;;23.54;100.00;100103.38;3046470;19;1215;-50
2022/08/23 05:34:47;;;;;;;;;;;;;;;23.55;100.00;100105.91;3046151;19;1559;-50
2022/08/23 05:35:49;;;;;;;;;;;;;;;23.56;100.00;100113.03;3047959;19;1575;-50
2022/08/23 05:36:54;;;;;;;;;;;;;;;23.57;100.00;100113.88;3050191;19;1691;-50
2022/08/23 05:38:12;;;;;;;;;;;;;;;23.59;100.00;100114.53;3050044;19;1016;-50
2022/08/23 05:39:22;;;;;;;;;;;;;;;23.70;100.00;100111.34;3051030;19;1026;-50
2022/08/23 05:40:38;;;;;;;;;;;;;;;23.74;100.00;100118.13;3054721;19;1653;-50
2022/08/23 05:41:46;;;;;;;;;;;;;;;23.75;100.00;100125.28;3052374;19;1859;-50
2022/08/23 05:42:48;;;;;;;;;;;;;;;23.83;100.00;100127.03;3053970;19;1588;-50
2022/08/23 05:43:52;;;;;;;;;;;;;;;23.89;100.00;100127.16;3053207;19;1296;-50
2022/08/23 05:44:55;;;;;;;;;;;;;;;23.96;100.00;100130.78;3051748;19;1349;-50
2022/08/23 05:46:01;;;;;;;;;;;;;;;24.01;100.00;100136.53;3054801;19;1157;-50
2022/08/23 05:47:08;;;;;;;;;;;;;;;24.05;100.00;100137.81;3054645;19;1300;-50
2022/08/23 05:48:38;;;;;;;;;;;;;;;24.16;100.00;100141.09;3052882;19;1819;-50
2022/08/23 05:49:42;;;;;;;;;;;;;;;24.22;100.00;100151.25;3054365;19;1862;-51
2022/08/23 05:50:47;;;;;;;;;;;;;;;24.27;100.00;100157.03;3053940;19;1483;-50
2022/08/23 05:51:49;;;;;;;;;;;;;;;24.31;100.00;100169.22;3055932;19;1121;-49
2022/08/23 05:52:56;;;;;;;;;;;;;;;24.33;100.00;100181.66;3055811;19;940;-49